Portada
METAR-TAF:

METAR-TAF

Aeroports :

Cascais, Portugal

latitud: 38-43-32N, longitud: 009-21-19W, altitud: 99 m

Observació

L'informe es va fer fa 31 minuts, a les 13:00 UTC
Vent 4 kt del Sud-Oest, variant entre Sud i Oest/Sud-Oest
Temperatura 29°C
Humitat 45%
Pressió 1014 hPa
Visibilitat 10 km o més
sense núvols per sota de 1500 mi sense presència de cumulonimbus.

METAR: LPCS 071300Z 22004KT 180V250 CAVOK 29/16 Q1014

Hora: 14:31 (13:31 UTC)

Pronòstic

L'informe es va fer fa 2 hores i 31 minuts, a les 11:00 UTC
Pronòstic vàlid del 07 a les 12 UTC al 07 a les 21 UTC
Vent 8 kt del Oest/Sud-Oest
Visibilitat 10 km o més
sense núvols per sota de 1500 mi sense presència de cumulonimbus.
Evolucionant progressivament
l' 07 a les 12 UTC al 07 a les 15 UTC
Vent 12 kt del Nord/Nord-Oest

TAF: LPCS 071100Z 0712/0721 24008KT CAVOK BECMG 0712/0715 34012KT

Observacions i pronòstics meteorològics de més de 4000 aeroports (METAR i TAF).

Les estacions disponibles són els punts grocs i vermells al mapa.

Posi el ratolí al punt desitjat per veure el nom de l'estació.

Feu clic per veure les observacions i els pronòstics meteorològics.

Per canviar el mapa: feu clic els botons verds amb una creu de color negre per apropar; al botó verd amb un guió per allunyar la imatge; o en les fletxes verdes per a mapes adjacents.


METAR-TAF: